明野飛行場

2018/02/07

懐古 明野駐屯地開設45周年記念行事 2000/10/1 sun

まずは、5日に起きた佐賀での墜落事故の犠牲に際し、お悔やみ申し上げます。昨今、増えている事故について、抜本的な対策を講じられんことを切に望みます。

さて、懐古シリーズを再開。仙台から関空に飛んで、翌日近鉄を乗り継いで明野に行っていたようです。

空想出 明野駐屯地 2000/10/1

空想出2 明野駐屯地 2000/10/1

20001001_rjoe_x00akeno

標題の記念行事ですが、次の記念も併せてです。陸上自衛隊創隊50周年、航空学校創立48周年。

20001001_rjoe_x02jg00003g

JG00003 AS332L ST

20001001_rjoe_x03ja007r

JA007R R44

20001001_rjoe_x04jg52909

JG52909 CH-47J SK

20001001_rjoe_x05jg31128

JG31128 OH-6D S

20001001_rjoe_x06ja003m

JA003M MH2000A MHI

20001001_rjoe_x07ja11ar

JA11AR S-2B

20001001_rjoe_x08ja9979

JA9979 BK117-C1 CEH

20001001_rjoe_x09jg32605

JG32605 OH-1 S

20001001_rjoe_x10jg73454

JG73454 AH-1S S

20001001_rjoe_x11ajg

航過飛行

20001001_rjoe_x11bjg

 

しんがりにLR-2も飛んでいました。

20001001_rjoe_x11ja11ar

JA11AR  航過飛行の後は、ロックさんのショー

20001001_rjoe_x12flt

航過編隊が帰ってきました。

20001001_rjoe_x13oh1

なんか、OH-1の飛んでるところ・・ 最近見た記憶がない

20001001_rjoe_x14oh6

まだまだOH-6が主役

20001001_rjoe_x15ah

模擬戦闘は、コブラ大活躍

20001001_rjoe_x16ja3859

JA3859 Bellanca 7GCBC Citabria

20001001_rjoe_x17oh6

スーパーホーネットの展示もありました

20001001_rjoe_x18jg22007

JG22007 LR-1 M

20001001_rjoe_x19jg43103

JG43103 UH-60JA S

20001001_rjoe_x20akeno

午後は、技本格を眺めながら・・ 茸狩りに

20001001_rjoe_x21ak

見えて来ました・・ 明野NDB(AK)

20001001_rjoe_x22ak

伊勢市立豊浜中学校の脇にあります。

#####

| | コメント (0) | トラックバック (0)

2017/11/09

明野駐屯地開設62周年航空祭 明野飛行場 2017/11/4 sat

入間から帰路転進して、明野へ。明野駐屯地開設62周年航空学校創立65周年記念行事 が、正式名称です。前回の訪問が2000年と記録されていたので、随分遠い時間が過ぎてしまいました。

METAR RJOE 032300Z 16003KT 8000 FEW030 SCT150 BKN230 15/12 Q1015 RMK 1CU030 3AC150 5CI230 A2998

20171104_rjoe_100akeno

門柱右が駐屯地、左が航空学校

20171104_rjoe_101akeno

昨年修復された先駆の碑

20171104_rjoe_102jg2601

売店裏にひっそり隠れていた、コメガ

20171104_rjoe_103chimu

ふわふわは、チヌタン

20171104_rjoe_104rjoe

ベースオペレーションの管制棟は、新しい建物に移っていました。

METAR RJOE 040000Z 30005KT 9000 FEW030 SCT230 18/12 Q1015 RMK 1CU030 3CI230 A2999

20171104_rjoe_105ja06me

JA06ME A109E 三重県警察「いせ」 パトロールしてから着陸、展示

20171104_rjoe_106ja960a

JA960A AW109 JCG 中部空港海上保安航空基地「かみたか1号」

20171104_rjoe_107t565744

浜松の第一航空団からT-4が2機 31SQの機体かな、しかしこのC/Sは何?

20171104_rjoe_108t565744

56-5744 T-4 31SQ / 86-5609 T-4 31SQ sakuma-a

METAR RJOE 040100Z 29007KT 9999 FEW030 SCT230 20/10 Q1015 RMK 1CU030
3CI230 A2999

20171104_rjoe_109jg43123

祝賀飛行へテイクオフ JG43123

20171104_rjoe_110jg74501

アパッチは1号機 JG74501

20171104_rjoe_111jg52922

チヌタンは、教育支援飛行隊と霞ヶ浦分校の模様

20171104_rjoe_112jg73470

これは、航空学校のコブラ JG73470

20171104_rjoe_113jg

明野フライト

20171104_rjoe_114jg

所在する部隊の他に学校の分校機も参加しています。

20171104_rjoe_115jg

ながーい編隊となって飛び立っていきました。

20171104_rjoe_116hinomaru

国旗入場

20171104_rjoe_117jg62351

式典が進んで慰霊飛行です。

20171104_rjoe_118jg62351

TH-480 5機編隊で・・

20171104_rjoe_119jg62351

函館でのLR-2他殉職者の慰霊をします。

20171104_rjoe_120jg62351

ミッシングマンで3番機が昇天しました。

20171104_rjoe_121jg62351

慰霊飛行1番機にトラブルで先に着陸 JG62351

20171104_rjoe_122jg

明野フライトが祝賀飛行

20171104_rjoe_123jg

まずは航空学校本校編隊

20171104_rjoe_124jg

第10飛行隊編隊

20171104_rjoe_125jg

第5対戦車ヘリコプター隊編隊

20171104_rjoe_126jg

教育支援飛行隊、宇都宮分校、霞ヶ浦分校編隊と続きました。

20171104_rjoe_127pj

祝賀飛行の後は、へりから高高度空挺降下

20171104_rjoe_128pj

4傘が綺麗に着地しました。

20171104_rjoe_129jg

祝賀飛行編隊が順次着陸

20171104_rjoe_130jg73464

JG73464 AH-1S S

20171104_rjoe_131jg

JG41??? UH-1J X

20171104_rjoe_132jg52922

JG52922 CH-47J SK

20171104_rjoe_133hayate

名物ハヤテジュニアの展示

20171104_rjoe_134jg32604

航空支援車両展示に引かれてきたOH-1 OH-1のフライトは見られんだ。 JG32604

20171104_rjoe_135sp

牽引車 電源車 燃料車 と続きます

METAR RJOE 040200Z 31012KT 9999 FEW030 BKN050 BKN230 20/11 Q1015 RMK 2CU030 5SC050 5CI230 A2999 MAX WIND 18KT

20171104_rjoe_136hayate

ハヤテが戻ってきた

20171104_rjoe_137fcv

ストライカーの放水

プログラム上は、OH-1の飛行試験なのだが・・ なかった

20171104_rjoe_138t865949

静浜からT-7の航過

20171104_rjoe_139t865949

86-5949 /36-5904 T-7 13FTW amagi-h

20171104_rjoe_140c951082

95-1082 C-130H 401SQ C82

20171104_rjoe_141f028801

岐阜のマンボ

20171104_rjoe_142f028801

02-8801 F-15J ATDW

20171104_rjoe_143f138514

20171104_rjoe_144f138514

13-8514 F-2A ATDW

20171104_rjoe_145jg41899

行動展示のはじまりぃぃ

20171104_rjoe_146jg41899

JG41899 UH-1J SD

20171104_rjoe_147recon

偵察要員を輸送

20171104_rjoe_148recon

災害状況を偵察に

20171104_rjoe_149jg43102

JG43102 UH-60JA SD

20171104_rjoe_150jg33102

要員がリペリングで降下

20171104_rjoe_151jg72931

チヌタンが高機動車を吊り上げて輸送

20171104_rjoe_152jg72931

JG72931 CH-47J SD

20171104_rjoe_153jg41843

要救助者をホイストで吊り上げ

20171104_rjoe_154jg41843

JG41843 UH-1J SD

20171104_rjoe_155jg41843

展示飛行は終了しました お疲れ様です

20171104_rjoe_156jg

展示ビルも撤収 場外の観客にお手振りです

20171104_rjoe_157jg

明野レインボーの登場

20171104_rjoe_158jg

サンライズですか・・・

20171104_rjoe_159jg62352

JG62352 TH-480 S

20171104_rjoe_160jg73470

JG73470 AH-1S S

20171104_rjoe_161jg43117

JG43117 UH-60JA S

20171104_rjoe_162jg74501

JG74501 AH-64D S

20171104_rjoe_163jg73470

ヘルメットにあわせて、グルグル

20171104_rjoe_164jg73470

派手に機動飛行をバタバタバタ

20171104_rjoe_165jg

タンゴ5機でホーネットみたいなフライト

20171104_rjoe_166jg62352

JG62352 TH-480 S

20171104_rjoe_167jg62353

トレイルから・・

20171104_rjoe_168jg62353

デルタへ

20171104_rjoe_169jg43117

一番派手に飛んだ60

RJOE 040202Z 29013KT 9999 FEW030 SCT050 21/10 Q1015 RMK 1CU030 3SC050 A2998 MAX WIND 19KT

20171104_rjoe_170jg74501

アパッチも機銃グルグル

20171104_rjoe_171jg74501

手放し飛行も、オーケー

20171104_rjoe_172jg

最後に会場背後から入場して・・

20171104_rjoe_173jg

パーと開いて、お開き

20171104_rjoe_174jg62353

JG62353 一機づつ紹介されながら退場です

20171104_rjoe_175jg62352

JG62352

20171104_rjoe_176jg62355

JG62355

20171104_rjoe_177jg62359

JG62359

20171104_rjoe_178jg73470

JG73470

20171104_rjoe_179jg43117

JG43117

20171104_rjoe_180jg74501

JG74501

20171104_rjoe_181jg62359

JG62358

20171104_rjoe_182jg74501

場外の観衆へ、お手振りで退場です

20171104_rjoe_183jg

JG41872 UH-1J X  空挺さんお帰りかな

20171104_rjoe_184jg

これにて飛行展示関係は終了。小生もこの辺で帰投といたしました。

| | コメント (0) | トラックバック (0)

2006/09/22

空想出 明野駐屯地2 2000/10/1

20001001_rjoe_2120001001_rjoe_2220001001_rjoe_232000年のロックさんの明野でのフライトです

20001001_rjoe_3120001001_rjoe_3220001001_rjoe_33左:海上保安庁による救難デモ JA9562 中:基地に道一本で隣接している伊勢航空基地 右:三重県の防災ヘリ JA6703

| | コメント (1) | トラックバック (0)

2006/09/15

空想出 明野駐屯地 2000/10/1

20001001_rjoe_0120001001_rjoe_0220001001_rjoe_03写真をたどると前日の仙台から名古屋まで飛んで明野にやってきました この年は自衛隊50周年、いつもよりお祝いムードでしたが、朝は小雨 だんだん天候がよくなってきました

左:近鉄明野駅から歩いて少しで正門 中:特徴的なタワービル 右:陸自ヘリはすべての機種がそろっています

20001001_rjoe_1120001001_rjoe_1220001001_rjoe_13左:すでにOH1はかなり配属されていました 中:明野のマスフライトは伊勢フライト 右:行儀良く並んでスポットイン

| | コメント (0) | トラックバック (0)

その他のカテゴリー

BI Boading record aircraft Boading record ship FlightTracking lighthouse NAVAIDS RJNT LOG SKY MASSAGE US NAVY USMC うみ おか そら てつ アクシデント エアロック チーム室屋 三沢飛行場 上五島空港 下地島空港 下総飛行場 与那国空港 中標津空港 中部国際空港 久米島空港 五島福江空港 仙台空港 伊江島空港 但馬空港 佐賀空港 入間飛行場 八尾空港 八戸飛行場 出雲空港 函館空港 利尻空港 北九州空港 十勝飛行場 千歳飛行場 博物館 厚木飛行場 名古屋飛行場 喜界空港 嘉手納飛行場 場外 壱岐空港 大分空港 大湊飛行場 大阪国際空港 大館能代空港 天草空港 奄美空港 奥尻空港 宇部山口空港 宇都宮飛行場 宮古空港 宮崎空港 富山空港 小松島飛行場 小松飛行場 屋久島空港 山形空港 岐阜飛行場 岡山空港 岩国飛行場 帯広空港 広島空港 庄内空港 徳之島空港 徳島飛行場 成田国際空港 新潟空港 新田原飛行場 旭川空港 旭川飛行場 明野飛行場 普天間飛行場 木更津飛行場 札幌飛行場 東京国際空港 松山空港 松島飛行場 松本空港 横田飛行場 沖永良部空港 波照間空港 浜松飛行場 海上保安庁 海上自衛隊 海外 熊本空港 百里飛行場 相馬原飛行場 石垣空港 石見空港 礼文空港 神戸空港 福井空港 福岡空港 福島空港 秋田空港 種子島空港 空撮 立川飛行場 築城飛行場 美保飛行場 能登空港 舞鶴飛行場 航空自衛隊 芦屋飛行場 花巻空港 調布飛行場 警務消防 那覇空港 釧路空港 長崎空港 関西国際空港 陸上自衛隊 隠岐空港 霞ヶ浦飛行場 霞目飛行場 青森空港 静岡空港 静浜飛行場 飛行場跡 飛行船 鹿児島空港 鹿屋飛行場